• Join FlightAware (Why Join?)
  • Login
  • US Flag 
02:29AM EDT


 

Airport Tracker/Info


-or-


 

Live Flight TrackerFlight Track Log ✈ EJA122 ✈ 13-Jul-2013 ✈ KORL - KIWH

Flight Track Log - Related Links

Times and Time Zones

All times are in EDT time to prevent confusion due to time zone crossing. See the EJA122 flight status page for this flight to view local times or setup timezone preferences in your user account.

Time Position Orientation Groundspeed Altitude Reporting Facility
EDT Latitude Longitude Course Direction KTS MPH feet Rate Location/Type
10:01AM 28.5500 -81.3167 41° Northeast 120 138 900  Level Orlando TRACON
10:02AM 28.5833 -81.2833 41° Northeast 220 253 1,600 900 Climbing Orlando TRACON
10:03AM 28.6333 -81.2500 30° Northeast 223 257 2,600 1,200 Climbing Orlando TRACON
10:04AM 28.6833 -81.2667 344° North 232 267 4,100 1,200 Climbing Orlando TRACON
10:05AM 28.7500 -81.2833 348° North 228 262 4,900 1,020 Climbing Orlando TRACON
10:07AM 28.8567 -81.3753 323° Northwest 216 249 7,400 1,500 Climbing Jacksonville Center
10:08AM 28.9278 -81.3742 North 216 249 9,800 2,220 Climbing Jacksonville Center
10:09AM 28.9989 -81.3803 356° North 254 292 11,900 1,860 Climbing Jacksonville Center
10:10AM 29.0739 -81.3886 354° North 266 306 13,600 1,560 Climbing Jacksonville Center
10:11AM 29.1597 -81.3969 355° North 300 345 15,100 1,500 Climbing Jacksonville Center
10:12AM 29.2475 -81.4050 355° North 314 361 16,600 1,260 Climbing Jacksonville Center
10:13AM 29.3414 -81.4131 356° North 331 381 17,700 1,080 Climbing Jacksonville Center
10:14AM 29.4397 -81.4214 356° North 345 397 18,800 1,020 Climbing Jacksonville Center
10:15AM 29.5294 -81.4342 353° North 350 403 19,800 1,020 Climbing Jacksonville Center
10:16AM 29.6300 -81.4422 356° North 355 409 20,900 1,080 Climbing Jacksonville Center
10:17AM 29.7322 -81.4528 355° North 360 414 22,000 1,080 Climbing Jacksonville Center
10:18AM 29.8347 -81.4608 356° North 365 420 23,100 1,080 Climbing Jacksonville Center
10:19AM 29.9392 -81.4736 354° North 372 428 24,200 1,080 Climbing Jacksonville Center
10:20AM 30.0397 -81.4936 350° North 372 428 25,300 1,020 Climbing Jacksonville Center
10:21AM 30.1508 -81.5378 341° North 372 428 26,300 900 Climbing Jacksonville Center
10:22AM 30.2514 -81.5725 343° North 377 434 27,100 840 Climbing Jacksonville Center
10:23AM 30.3561 -81.6119 342° North 384 442 28,000 840 Climbing Jacksonville Center
10:24AM 30.4608 -81.6514 342° North 384 442 28,800 780 Climbing Jacksonville Center
10:25AM 30.5658 -81.6958 340° North 389 448 29,600 840 Climbing Jacksonville Center
10:26AM 30.6725 -81.7381 341° North 389 448 30,500 840 Climbing Jacksonville Center
10:27AM 30.7794 -81.7778 342° North 389 448 31,300 660 Climbing Jacksonville Center
10:28AM 30.8883 -81.8225 341° North 394 453 31,900 540 Climbing Jacksonville Center
10:29AM 30.9994 -81.8650 342° North 407 468 32,400 540 Climbing Jacksonville Center
10:30AM 31.1106 -81.9097 341° North 413 475 33,000 300 Climbing Jacksonville Center
10:31AM 31.2256 -81.9525 342° North 418 481 33,000  Level Jacksonville Center
10:32AM 31.3428 -82.0000 341° North 440 506 33,000  Level Jacksonville Center
10:33AM 31.4622 -82.0475 341° North 447 514 33,000  Level Jacksonville Center
10:34AM 31.5836 -82.1000 340° North 453 521 33,000  Level Jacksonville Center
10:36AM 31.8497 -82.1978 343° North 450 518 33,000  Level Atlanta Center
10:37AM 31.9736 -82.2492 341° North 450 518 33,000  Level Atlanta Center
10:38AM 32.0933 -82.2983 341° North 450 518 33,000  Level Atlanta Center
10:39AM 32.2150 -82.3450 342° North 450 518 33,000  Level Atlanta Center
10:40AM 32.3367 -82.3967 340° North 450 518 33,000 120 Level Atlanta Center
10:41AM 32.4606 -82.4436 342° North 450 518 33,300 420 Climbing Atlanta Center
10:42AM 32.5781 -82.4908 341° North 450 518 33,900 300 Climbing Atlanta Center
10:43AM 32.6997 -82.5431 340° North 450 518 34,000  Climbing Atlanta Center
10:44AM 32.8214 -82.5903 342° North 450 518 34,000  Level Atlanta Center
10:45AM 32.9431 -82.6428 340° North 450 518 34,000  Level Atlanta Center
10:46AM 33.0667 -82.6928 341° North 455 524 34,000  Level Atlanta Center
10:47AM 33.1925 -82.7431 342° North 455 524 34,000  Level Atlanta Center
10:48AM 33.3350 -82.8006 341° North 465 535 34,000  Level Atlanta Center
10:49AM 33.4650 -82.8511 342° North 488 562 34,000  Level Atlanta Center
10:50AM 33.5908 -82.9092 339° North 488 562 34,000  Level Atlanta Center
10:51AM 33.7122 -82.9425 347° North 488 562 34,000  Level Atlanta Center
10:52AM 33.8519 -82.9306 North 494 568 34,000  Level Atlanta Center
10:53AM 33.9892 -82.8964 12° North 501 577 34,000  Level Atlanta Center
10:54AM 34.1331 -82.8719 North 506 582 34,000  Level Atlanta Center
10:55AM 34.2733 -82.9075 348° North 495 570 34,000  Level Atlanta Center
10:56AM 34.4011 -82.9614 341° North 495 570 34,000  Level Atlanta Center
10:57AM 34.5167 -83.0481 328° Northwest 488 562 34,000  Level Atlanta Center
10:58AM 34.6175 -83.1528 319° Northwest 477 549 34,000  Level Atlanta Center
10:59AM 34.7144 -83.2706 315° West 477 549 34,000  Level Atlanta Center
11:00AM 34.8275 -83.3606 327° Northwest 477 549 34,000  Level Atlanta Center
11:01AM 34.9447 -83.4433 330° Northwest 482 555 34,000  Level Atlanta Center
11:02AM 35.0806 -83.4931 343° North 482 555 34,000  Level Atlanta Center
11:03AM 35.2311 -83.5481 343° North 500 575 34,000  Level Atlanta Center
11:04AM 35.3669 -83.6008 342° North 505 581 34,000  Level Atlanta Center
11:05AM 35.5006 -83.6511 343° North 505 581 34,000  Level Atlanta Center
11:06AM 35.6344 -83.7014 343° North 505 581 34,000  Level Atlanta Center
11:07AM 35.7700 -83.7522 343° North 505 581 34,000  Level Atlanta Center
11:08AM 35.9078 -83.8056 343° North 505 581 34,000  Level Atlanta Center
11:09AM 36.0436 -83.8564 343° North 505 581 34,000  Level Atlanta Center
11:10AM 36.1258 -83.8872 343° North 514 592 34,000  Level Indianapolis Center
11:11AM 36.2622 -83.9411 342° North 516 594 34,000  Level Indianapolis Center
11:12AM 36.4006 -83.9933 343° North 520 598 34,000  Level Indianapolis Center
11:13AM 36.5347 -84.0464 342° North 519 597 34,000  Level Indianapolis Center
11:14AM 36.6969 -84.1100 343° North 521 600 34,000  Level Indianapolis Center
11:15AM 36.8356 -84.1644 343° North 518 596 34,000  Level Indianapolis Center
11:16AM 36.9739 -84.2192 342° North 517 595 34,000  Level Indianapolis Center
11:17AM 37.1117 -84.2736 343° North 517 595 34,000  Level Indianapolis Center
11:18AM 37.2453 -84.3281 342° North 508 585 34,000  Level Indianapolis Center
11:19AM 37.3783 -84.3797 343° North 502 578 34,000  Level Indianapolis Center
11:20AM 37.5089 -84.4311 343° North 492 566 34,000  Level Indianapolis Center
11:21AM 37.6389 -84.4831 342° North 490 564 34,000  Level Indianapolis Center
11:22AM 37.7856 -84.5453 341° North 478 550 34,000  Level Indianapolis Center
11:23AM 37.9150 -84.5964 343° North 482 555 34,000  Level Indianapolis Center
11:24AM 38.0428 -84.6492 342° North 482 555 34,000  Level Indianapolis Center
11:25AM 38.1725 -84.6997 343° North 485 558 34,000  Level Indianapolis Center
11:26AM 38.2981 -84.7500 343° North 474 545 34,000  Level Indianapolis Center
11:27AM 38.4239 -84.8022 342° North 474 545 34,000  Level Indianapolis Center
11:28AM 38.5497 -84.8522 343° North 472 543 34,000  Level Indianapolis Center
11:29AM 38.6903 -84.9133 341° North 470 541 34,000  Level Indianapolis Center
11:30AM 38.8128 -84.9633 342° North 466 536 34,000 -60 Level Indianapolis Center
11:31AM 38.9336 -85.0150 342° North 460 529 33,900 -960 Descending Indianapolis Center
11:32AM 39.0561 -85.0647 343° North 463 533 32,100 -1,860 Descending Indianapolis Center
11:33AM 39.1781 -85.1161 342° North 463 533 30,200 -1,920 Descending Indianapolis Center
11:35AM 39.2975 -85.1664 342° North 457 526 28,300 -1,920 Descending Indianapolis Center
11:36AM 39.4428 -85.2283 342° North 459 528 26,200 -1,920 Descending Indianapolis Center
11:37AM 39.5633 -85.2783 342° North 459 528 24,400 -1,740 Descending Indianapolis Center
11:38AM 39.6828 -85.3294 342° North 457 526 22,700 -1,740 Descending Indianapolis Center
11:39AM 39.8011 -85.3797 342° North 453 521 20,900 -1,740 Descending Indianapolis Center
11:40AM 39.9114 -85.4286 341° North 429 494 19,100 -1,620 Descending Indianapolis Center
11:41AM 40.0200 -85.4731 343° North 415 478 17,600 -1,920 Descending Indianapolis Center
11:42AM 40.1403 -85.5261 341° North 385 443 15,300 -2,280 Descending Indianapolis Center
11:43AM 40.2350 -85.5664 342° North 364 419 13,000 -2,100 Descending Indianapolis Center
11:44AM 40.3303 -85.6083 341° North 362 417 11,000 -1,020 Descending Indianapolis Center
11:45AM 40.4203 -85.6478 342° North 352 405 11,000 -60 Level Indianapolis Center
11:46AM 40.5011 -85.6833 342° North 320 368 10,900 -1,140 Descending Indianapolis Center
11:47AM 40.5781 -85.7172 342° North 300 345 8,700 -2,400 Descending Indianapolis Center
11:48AM 40.6658 -85.7742 334° Northwest 298 343 5,900 -1,800 Descending Indianapolis Center
11:49AM 40.7336 -85.7864 352° North 273 314 5,100 -1,140 Descending Indianapolis Center
11:50AM 40.7811 -85.7919 355° North 210 242 3,700 -1,380 Descending Indianapolis Center
11:52AM 40.7620 -85.7988 346° North  Level Estimated
11:59AM 40.7620 -85.7988 346° North  Level Estimated